Terminal Aerodrome Forecast
Issued by NWS Cleveland, OH

Home | Current Version | Previous Version | Graphics & Text | Print | Product List | Glossary Off
Versions: 1 2 3 4 5 6 7 8 9 10 11 12 13 14 15 16

000
FTUS41 KCLE 311300 AAA
TAFERI
TAF AMD
KERI 311350Z 3114/0112 22010KT 6SM BR VCSH SCT008 OVC020
     FM311800 21010KT 6SM -SHRA SCT018 OVC035
     FM312200 21010KT P6SM OVC035=

USA.gov is the U.S. government's official web portal to all federal, state and local government web resources and services.